Terminal Aerodrome Forecast
Issued by NWS Grand Junction, CO

Home | Current Version | Previous Version | Text Only | Print | Product List | Glossary On
Versions: 1 2 3 4 5 6 7 8 9 10 11 12 13 14 15 16 17 18 19 20 21
000
FTUS45 KGJT 281723
TAFGJT
TAF
KGJT 281723Z 2818/2918 VRB03KT P6SM SCT100
     FM282000 28006KT P6SM SCT100 SCT250
     FM290200 03006KT P6SM SCT100 BKN250
     FM290600 11006KT P6SM FEW250=

USA.gov is the U.S. government's official web portal to all federal, state and local government web resources and services.